sensor_id;sensor_type;location;lat;lon;timestamp;P1;durP1;ratioP1;P2;durP2;ratioP2
30723;SDS011;17473;52.286;20.930;2023-02-22T00:00:59;13.03;;;3.43;;
30723;SDS011;17473;52.286;20.930;2023-02-22T00:03:32;9.60;;;3.07;;
30723;SDS011;17473;52.286;20.930;2023-02-22T00:06:00;12.33;;;3.30;;
30723;SDS011;17473;52.286;20.930;2023-02-22T00:08:34;8.67;;;3.30;;
30723;SDS011;17473;52.286;20.930;2023-02-22T00:11:04;13.33;;;3.87;;
30723;SDS011;17473;52.286;20.930;2023-02-22T00:13:34;10.77;;;3.20;;
30723;SDS011;17473;52.286;20.930;2023-02-22T00:16:04;9.70;;;3.53;;
30723;SDS011;17473;52.286;20.930;2023-02-22T00:18:31;11.27;;;3.57;;
30723;SDS011;17473;52.286;20.930;2023-02-22T00:20:59;6.80;;;2.80;;
30723;SDS011;17473;52.286;20.930;2023-02-22T00:23:27;15.43;;;3.53;;
30723;SDS011;17473;52.286;20.930;2023-02-22T00:25:56;9.53;;;3.27;;
30723;SDS011;17473;52.286;20.930;2023-02-22T00:28:25;8.20;;;2.87;;
30723;SDS011;17473;52.286;20.930;2023-02-22T00:30:53;12.30;;;3.40;;
30723;SDS011;17473;52.286;20.930;2023-02-22T00:33:20;12.40;;;3.10;;
30723;SDS011;17473;52.286;20.930;2023-02-22T00:35:48;10.43;;;3.17;;
30723;SDS011;17473;52.286;20.930;2023-02-22T00:38:16;9.93;;;3.17;;
30723;SDS011;17473;52.286;20.930;2023-02-22T00:40:44;12.20;;;3.13;;
30723;SDS011;17473;52.286;20.930;2023-02-22T00:43:12;10.33;;;3.30;;
30723;SDS011;17473;52.286;20.930;2023-02-22T00:45:39;6.87;;;3.00;;
30723;SDS011;17473;52.286;20.930;2023-02-22T00:48:07;9.47;;;3.30;;
30723;SDS011;17473;52.286;20.930;2023-02-22T00:50:35;9.97;;;3.27;;
30723;SDS011;17473;52.286;20.930;2023-02-22T00:53:03;11.70;;;3.37;;
30723;SDS011;17473;52.286;20.930;2023-02-22T00:55:32;8.30;;;3.03;;
30723;SDS011;17473;52.286;20.930;2023-02-22T00:58:01;7.37;;;3.30;;
30723;SDS011;17473;52.286;20.930;2023-02-22T01:00:34;12.43;;;3.67;;
30723;SDS011;17473;52.286;20.930;2023-02-22T01:03:05;8.67;;;3.00;;
30723;SDS011;17473;52.286;20.930;2023-02-22T01:05:36;9.93;;;3.53;;
30723;SDS011;17473;52.286;20.930;2023-02-22T01:08:04;9.83;;;3.47;;
30723;SDS011;17473;52.286;20.930;2023-02-22T01:10:33;12.93;;;3.87;;
30723;SDS011;17473;52.286;20.930;2023-02-22T01:13:02;8.13;;;3.03;;
30723;SDS011;17473;52.286;20.930;2023-02-22T01:15:35;10.33;;;3.83;;
30723;SDS011;17473;52.286;20.930;2023-02-22T01:18:05;7.97;;;3.23;;
30723;SDS011;17473;52.286;20.930;2023-02-22T01:20:33;8.27;;;3.30;;
30723;SDS011;17473;52.286;20.930;2023-02-22T01:23:01;13.47;;;3.80;;
30723;SDS011;17473;52.286;20.930;2023-02-22T01:25:32;9.60;;;3.10;;
30723;SDS011;17473;52.286;20.930;2023-02-22T01:28:01;10.40;;;4.00;;
30723;SDS011;17473;52.286;20.930;2023-02-22T01:30:31;8.30;;;3.57;;
30723;SDS011;17473;52.286;20.930;2023-02-22T01:33:02;12.17;;;4.47;;
30723;SDS011;17473;52.286;20.930;2023-02-22T01:35:32;9.93;;;3.63;;
30723;SDS011;17473;52.286;20.930;2023-02-22T01:38:02;8.70;;;3.67;;
30723;SDS011;17473;52.286;20.930;2023-02-22T01:40:30;16.30;;;4.40;;
30723;SDS011;17473;52.286;20.930;2023-02-22T01:43:26;9.27;;;3.57;;
30723;SDS011;17473;52.286;20.930;2023-02-22T01:48:51;14.20;;;4.40;;
30723;SDS011;17473;52.286;20.930;2023-02-22T01:51:27;12.43;;;3.73;;
30723;SDS011;17473;52.286;20.930;2023-02-22T01:56:52;14.47;;;4.13;;
30723;SDS011;17473;52.286;20.930;2023-02-22T01:59:34;11.50;;;3.73;;
30723;SDS011;17473;52.286;20.930;2023-02-22T02:02:05;17.53;;;3.97;;
30723;SDS011;17473;52.286;20.930;2023-02-22T02:04:33;9.70;;;3.40;;
30723;SDS011;17473;52.286;20.930;2023-02-22T02:07:02;12.37;;;3.63;;
30723;SDS011;17473;52.286;20.930;2023-02-22T02:09:38;6.60;;;3.67;;
30723;SDS011;17473;52.286;20.930;2023-02-22T02:12:32;10.17;;;3.53;;
30723;SDS011;17473;52.286;20.930;2023-02-22T02:15:22;8.40;;;3.60;;
30723;SDS011;17473;52.286;20.930;2023-02-22T02:18:00;12.60;;;3.90;;
30723;SDS011;17473;52.286;20.930;2023-02-22T02:29:44;10.50;;;3.73;;
30723;SDS011;17473;52.286;20.930;2023-02-22T02:35:27;12.40;;;3.57;;
30723;SDS011;17473;52.286;20.930;2023-02-22T02:41:02;9.17;;;3.53;;
30723;SDS011;17473;52.286;20.930;2023-02-22T02:43:46;9.40;;;3.80;;
30723;SDS011;17473;52.286;20.930;2023-02-22T02:46:32;11.40;;;3.40;;
30723;SDS011;17473;52.286;20.930;2023-02-22T02:49:24;11.97;;;3.60;;
30723;SDS011;17473;52.286;20.930;2023-02-22T02:52:02;8.47;;;3.40;;
30723;SDS011;17473;52.286;20.930;2023-02-22T02:54:31;8.37;;;2.93;;
30723;SDS011;17473;52.286;20.930;2023-02-22T02:56:59;10.17;;;3.37;;
30723;SDS011;17473;52.286;20.930;2023-02-22T02:59:30;10.20;;;3.27;;
30723;SDS011;17473;52.286;20.930;2023-02-22T03:11:17;8.37;;;3.10;;
30723;SDS011;17473;52.286;20.930;2023-02-22T03:16:49;9.97;;;3.63;;
30723;SDS011;17473;52.286;20.930;2023-02-22T03:19:44;11.27;;;2.93;;
30723;SDS011;17473;52.286;20.930;2023-02-22T03:22:25;15.40;;;3.80;;
30723;SDS011;17473;52.286;20.930;2023-02-22T03:25:13;9.47;;;3.83;;
30723;SDS011;17473;52.286;20.930;2023-02-22T03:27:54;13.00;;;4.10;;
30723;SDS011;17473;52.286;20.930;2023-02-22T03:30:38;15.23;;;4.00;;
30723;SDS011;17473;52.286;20.930;2023-02-22T03:33:17;14.07;;;4.40;;
30723;SDS011;17473;52.286;20.930;2023-02-22T03:36:00;13.27;;;3.53;;
30723;SDS011;17473;52.286;20.930;2023-02-22T03:38:36;8.60;;;3.93;;
30723;SDS011;17473;52.286;20.930;2023-02-22T03:41:07;8.80;;;3.57;;
30723;SDS011;17473;52.286;20.930;2023-02-22T03:43:41;6.80;;;2.87;;
30723;SDS011;17473;52.286;20.930;2023-02-22T03:46:14;8.23;;;3.10;;
30723;SDS011;17473;52.286;20.930;2023-02-22T03:48:56;10.63;;;3.60;;
30723;SDS011;17473;52.286;20.930;2023-02-22T03:51:35;5.63;;;3.27;;
30723;SDS011;17473;52.286;20.930;2023-02-22T03:54:02;10.10;;;3.97;;
30723;SDS011;17473;52.286;20.930;2023-02-22T03:56:32;9.63;;;3.20;;
30723;SDS011;17473;52.286;20.930;2023-02-22T03:59:12;8.50;;;3.03;;
30723;SDS011;17473;52.286;20.930;2023-02-22T04:01:40;7.10;;;3.33;;
30723;SDS011;17473;52.286;20.930;2023-02-22T04:04:07;7.43;;;3.27;;
30723;SDS011;17473;52.286;20.930;2023-02-22T04:06:34;10.87;;;3.53;;
30723;SDS011;17473;52.286;20.930;2023-02-22T04:09:01;5.87;;;2.63;;
30723;SDS011;17473;52.286;20.930;2023-02-22T04:11:28;7.33;;;3.10;;
30723;SDS011;17473;52.286;20.930;2023-02-22T04:13:56;5.27;;;2.53;;
30723;SDS011;17473;52.286;20.930;2023-02-22T04:16:23;10.83;;;3.20;;
30723;SDS011;17473;52.286;20.930;2023-02-22T04:18:50;7.27;;;2.80;;
30723;SDS011;17473;52.286;20.930;2023-02-22T04:21:17;5.53;;;2.53;;
30723;SDS011;17473;52.286;20.930;2023-02-22T04:23:44;5.87;;;2.90;;
30723;SDS011;17473;52.286;20.930;2023-02-22T04:26:12;4.13;;;2.40;;
30723;SDS011;17473;52.286;20.930;2023-02-22T04:28:39;4.73;;;1.97;;
30723;SDS011;17473;52.286;20.930;2023-02-22T04:31:06;6.57;;;1.87;;
30723;SDS011;17473;52.286;20.930;2023-02-22T04:33:33;2.60;;;1.40;;
30723;SDS011;17473;52.286;20.930;2023-02-22T04:36:00;1.97;;;1.30;;
30723;SDS011;17473;52.286;20.930;2023-02-22T04:38:27;3.93;;;1.80;;
30723;SDS011;17473;52.286;20.930;2023-02-22T04:40:54;3.10;;;1.50;;
30723;SDS011;17473;52.286;20.930;2023-02-22T04:43:21;3.73;;;1.63;;
30723;SDS011;17473;52.286;20.930;2023-02-22T04:45:48;1.70;;;1.40;;
30723;SDS011;17473;52.286;20.930;2023-02-22T04:48:15;3.47;;;1.60;;
30723;SDS011;17473;52.286;20.930;2023-02-22T04:50:42;3.30;;;1.40;;
30723;SDS011;17473;52.286;20.930;2023-02-22T04:53:09;2.10;;;1.27;;
30723;SDS011;17473;52.286;20.930;2023-02-22T04:55:36;2.17;;;1.67;;
30723;SDS011;17473;52.286;20.930;2023-02-22T04:58:04;3.53;;;1.90;;
30723;SDS011;17473;52.286;20.930;2023-02-22T05:00:33;3.17;;;1.60;;
30723;SDS011;17473;52.286;20.930;2023-02-22T05:03:00;2.60;;;1.33;;
30723;SDS011;17473;52.286;20.930;2023-02-22T05:05:27;2.67;;;1.50;;
30723;SDS011;17473;52.286;20.930;2023-02-22T05:07:54;1.53;;;1.30;;
30723;SDS011;17473;52.286;20.930;2023-02-22T05:10:21;2.60;;;1.20;;
30723;SDS011;17473;52.286;20.930;2023-02-22T05:12:50;1.60;;;1.27;;
30723;SDS011;17473;52.286;20.930;2023-02-22T05:15:18;2.20;;;1.50;;
30723;SDS011;17473;52.286;20.930;2023-02-22T05:17:46;3.00;;;1.83;;
30723;SDS011;17473;52.286;20.930;2023-02-22T05:20:21;1.70;;;1.47;;
30723;SDS011;17473;52.286;20.930;2023-02-22T05:22:55;4.70;;;1.80;;
30723;SDS011;17473;52.286;20.930;2023-02-22T05:25:25;1.90;;;1.50;;
30723;SDS011;17473;52.286;20.930;2023-02-22T05:27:53;2.10;;;1.50;;
30723;SDS011;17473;52.286;20.930;2023-02-22T05:30:31;3.07;;;1.90;;
30723;SDS011;17473;52.286;20.930;2023-02-22T05:33:01;2.23;;;1.87;;
30723;SDS011;17473;52.286;20.930;2023-02-22T05:35:28;4.83;;;1.80;;
30723;SDS011;17473;52.286;20.930;2023-02-22T05:37:55;2.87;;;1.33;;
30723;SDS011;17473;52.286;20.930;2023-02-22T05:40:25;4.70;;;1.70;;
30723;SDS011;17473;52.286;20.930;2023-02-22T05:42:54;2.73;;;1.83;;
30723;SDS011;17473;52.286;20.930;2023-02-22T05:45:24;3.23;;;1.90;;
30723;SDS011;17473;52.286;20.930;2023-02-22T05:47:53;3.20;;;1.40;;
30723;SDS011;17473;52.286;20.930;2023-02-22T05:50:21;4.33;;;1.60;;
30723;SDS011;17473;52.286;20.930;2023-02-22T05:52:49;3.67;;;1.40;;
30723;SDS011;17473;52.286;20.930;2023-02-22T05:55:18;5.40;;;2.03;;
30723;SDS011;17473;52.286;20.930;2023-02-22T05:57:48;2.50;;;1.50;;
30723;SDS011;17473;52.286;20.930;2023-02-22T06:00:17;4.80;;;2.23;;
30723;SDS011;17473;52.286;20.930;2023-02-22T06:02:55;4.70;;;2.50;;
30723;SDS011;17473;52.286;20.930;2023-02-22T06:05:24;4.43;;;1.97;;
30723;SDS011;17473;52.286;20.930;2023-02-22T06:07:52;4.30;;;1.63;;
30723;SDS011;17473;52.286;20.930;2023-02-22T06:10:20;3.70;;;1.90;;
30723;SDS011;17473;52.286;20.930;2023-02-22T06:12:48;6.93;;;2.47;;
30723;SDS011;17473;52.286;20.930;2023-02-22T06:15:17;3.97;;;2.27;;
30723;SDS011;17473;52.286;20.930;2023-02-22T06:17:46;2.40;;;1.80;;
30723;SDS011;17473;52.286;20.930;2023-02-22T06:20:15;6.07;;;2.03;;
30723;SDS011;17473;52.286;20.930;2023-02-22T06:22:48;7.33;;;2.30;;
30723;SDS011;17473;52.286;20.930;2023-02-22T06:25:18;3.27;;;1.90;;
30723;SDS011;17473;52.286;20.930;2023-02-22T06:27:50;3.37;;;1.90;;
30723;SDS011;17473;52.286;20.930;2023-02-22T06:30:18;5.40;;;2.30;;
30723;SDS011;17473;52.286;20.930;2023-02-22T06:32:49;3.60;;;2.37;;
30723;SDS011;17473;52.286;20.930;2023-02-22T06:35:16;3.67;;;2.27;;
30723;SDS011;17473;52.286;20.930;2023-02-22T06:37:44;3.37;;;2.30;;
30723;SDS011;17473;52.286;20.930;2023-02-22T06:40:11;3.87;;;2.33;;
30723;SDS011;17473;52.286;20.930;2023-02-22T06:42:40;3.33;;;2.37;;
30723;SDS011;17473;52.286;20.930;2023-02-22T06:45:07;3.90;;;2.17;;
30723;SDS011;17473;52.286;20.930;2023-02-22T06:47:38;3.53;;;2.23;;
30723;SDS011;17473;52.286;20.930;2023-02-22T06:50:20;4.17;;;2.53;;
30723;SDS011;17473;52.286;20.930;2023-02-22T06:52:51;4.70;;;3.07;;
30723;SDS011;17473;52.286;20.930;2023-02-22T06:55:19;6.53;;;2.43;;
30723;SDS011;17473;52.286;20.930;2023-02-22T06:57:49;4.43;;;2.80;;
30723;SDS011;17473;52.286;20.930;2023-02-22T07:00:17;3.80;;;2.40;;
30723;SDS011;17473;52.286;20.930;2023-02-22T07:02:46;6.50;;;2.93;;
30723;SDS011;17473;52.286;20.930;2023-02-22T07:05:14;3.83;;;2.50;;
30723;SDS011;17473;52.286;20.930;2023-02-22T07:07:44;5.17;;;2.60;;
30723;SDS011;17473;52.286;20.930;2023-02-22T07:10:23;2.90;;;2.20;;
30723;SDS011;17473;52.286;20.930;2023-02-22T07:12:54;4.80;;;2.30;;
30723;SDS011;17473;52.286;20.930;2023-02-22T07:15:22;2.50;;;2.03;;
30723;SDS011;17473;52.286;20.930;2023-02-22T07:17:51;5.87;;;2.43;;
30723;SDS011;17473;52.286;20.930;2023-02-22T07:20:19;3.60;;;2.43;;
30723;SDS011;17473;52.286;20.930;2023-02-22T07:22:48;3.40;;;2.10;;
30723;SDS011;17473;52.286;20.930;2023-02-22T07:25:15;4.03;;;2.20;;
30723;SDS011;17473;52.286;20.930;2023-02-22T07:27:43;3.63;;;2.37;;
30723;SDS011;17473;52.286;20.930;2023-02-22T07:30:19;3.70;;;2.20;;
30723;SDS011;17473;52.286;20.930;2023-02-22T07:32:58;2.77;;;2.03;;
30723;SDS011;17473;52.286;20.930;2023-02-22T07:35:46;2.30;;;1.90;;
30723;SDS011;17473;52.286;20.930;2023-02-22T07:38:16;4.10;;;2.30;;
30723;SDS011;17473;52.286;20.930;2023-02-22T07:40:44;2.87;;;2.10;;
30723;SDS011;17473;52.286;20.930;2023-02-22T07:43:22;3.40;;;1.90;;
30723;SDS011;17473;52.286;20.930;2023-02-22T07:45:52;3.17;;;2.00;;
30723;SDS011;17473;52.286;20.930;2023-02-22T07:48:25;2.83;;;1.93;;
30723;SDS011;17473;52.286;20.930;2023-02-22T07:50:54;2.67;;;1.90;;
30723;SDS011;17473;52.286;20.930;2023-02-22T07:53:23;3.43;;;2.20;;
30723;SDS011;17473;52.286;20.930;2023-02-22T07:56:02;3.27;;;2.00;;
30723;SDS011;17473;52.286;20.930;2023-02-22T07:58:31;4.53;;;2.47;;
30723;SDS011;17473;52.286;20.930;2023-02-22T08:00:58;4.17;;;2.13;;
30723;SDS011;17473;52.286;20.930;2023-02-22T08:03:32;3.97;;;2.27;;
30723;SDS011;17473;52.286;20.930;2023-02-22T08:06:02;4.13;;;2.00;;
30723;SDS011;17473;52.286;20.930;2023-02-22T08:08:32;3.10;;;1.90;;
30723;SDS011;17473;52.286;20.930;2023-02-22T08:10:59;3.27;;;2.10;;
30723;SDS011;17473;52.286;20.930;2023-02-22T08:13:27;3.07;;;2.30;;
30723;SDS011;17473;52.286;20.930;2023-02-22T08:15:54;4.50;;;2.53;;
30723;SDS011;17473;52.286;20.930;2023-02-22T08:18:22;4.83;;;2.20;;
30723;SDS011;17473;52.286;20.930;2023-02-22T08:20:51;3.40;;;2.13;;
30723;SDS011;17473;52.286;20.930;2023-02-22T08:23:20;2.33;;;1.93;;
30723;SDS011;17473;52.286;20.930;2023-02-22T08:25:50;4.00;;;2.50;;
30723;SDS011;17473;52.286;20.930;2023-02-22T08:28:19;2.30;;;1.83;;
30723;SDS011;17473;52.286;20.930;2023-02-22T08:30:49;4.00;;;2.10;;
30723;SDS011;17473;52.286;20.930;2023-02-22T08:33:18;6.27;;;2.57;;
30723;SDS011;17473;52.286;20.930;2023-02-22T08:35:46;3.90;;;2.40;;
30723;SDS011;17473;52.286;20.930;2023-02-22T08:38:22;3.23;;;2.30;;
30723;SDS011;17473;52.286;20.930;2023-02-22T08:40:53;13.83;;;3.70;;
30723;SDS011;17473;52.286;20.930;2023-02-22T08:43:21;5.63;;;2.63;;
30723;SDS011;17473;52.286;20.930;2023-02-22T08:45:49;13.03;;;2.53;;
30723;SDS011;17473;52.286;20.930;2023-02-22T08:48:17;4.77;;;2.60;;
30723;SDS011;17473;52.286;20.930;2023-02-22T08:50:45;4.50;;;2.53;;
30723;SDS011;17473;52.286;20.930;2023-02-22T08:53:13;5.93;;;2.80;;
30723;SDS011;17473;52.286;20.930;2023-02-22T08:55:41;4.57;;;3.07;;
30723;SDS011;17473;52.286;20.930;2023-02-22T08:58:09;5.53;;;2.70;;
30723;SDS011;17473;52.286;20.930;2023-02-22T09:00:38;5.53;;;2.93;;
30723;SDS011;17473;52.286;20.930;2023-02-22T09:03:07;3.57;;;2.53;;
30723;SDS011;17473;52.286;20.930;2023-02-22T09:05:38;7.67;;;3.10;;
30723;SDS011;17473;52.286;20.930;2023-02-22T09:08:07;4.77;;;2.53;;
30723;SDS011;17473;52.286;20.930;2023-02-22T09:10:34;4.67;;;3.00;;
30723;SDS011;17473;52.286;20.930;2023-02-22T09:13:01;5.60;;;2.40;;
30723;SDS011;17473;52.286;20.930;2023-02-22T09:15:29;3.87;;;2.63;;
30723;SDS011;17473;52.286;20.930;2023-02-22T09:17:58;6.10;;;2.57;;
30723;SDS011;17473;52.286;20.930;2023-02-22T09:20:25;3.70;;;2.93;;
30723;SDS011;17473;52.286;20.930;2023-02-22T09:22:53;5.87;;;3.47;;
30723;SDS011;17473;52.286;20.930;2023-02-22T09:25:21;4.37;;;2.33;;
30723;SDS011;17473;52.286;20.930;2023-02-22T09:27:49;4.27;;;2.50;;
30723;SDS011;17473;52.286;20.930;2023-02-22T09:30:22;4.67;;;3.23;;
30723;SDS011;17473;52.286;20.930;2023-02-22T09:33:02;11.37;;;6.07;;
30723;SDS011;17473;52.286;20.930;2023-02-22T09:35:35;7.00;;;3.50;;
30723;SDS011;17473;52.286;20.930;2023-02-22T09:38:08;4.53;;;2.97;;
30723;SDS011;17473;52.286;20.930;2023-02-22T09:40:38;4.47;;;2.37;;
30723;SDS011;17473;52.286;20.930;2023-02-22T09:43:17;5.37;;;2.50;;
30723;SDS011;17473;52.286;20.930;2023-02-22T09:46:07;3.90;;;2.20;;
30723;SDS011;17473;52.286;20.930;2023-02-22T09:51:41;2.97;;;2.00;;
30723;SDS011;17473;52.286;20.930;2023-02-22T09:57:03;3.47;;;2.27;;
30723;SDS011;17473;52.286;20.930;2023-02-22T09:59:39;3.17;;;1.97;;
30723;SDS011;17473;52.286;20.930;2023-02-22T10:04:54;3.47;;;2.20;;
30723;SDS011;17473;52.286;20.930;2023-02-22T10:07:42;3.50;;;2.57;;
30723;SDS011;17473;52.286;20.930;2023-02-22T10:10:25;3.73;;;2.33;;
30723;SDS011;17473;52.286;20.930;2023-02-22T10:27:36;5.33;;;3.47;;
30723;SDS011;17473;52.286;20.930;2023-02-22T10:30:20;4.70;;;3.20;;
30723;SDS011;17473;52.286;20.930;2023-02-22T10:33:29;7.23;;;3.30;;
30723;SDS011;17473;52.286;20.930;2023-02-22T10:36:13;5.27;;;3.20;;
30723;SDS011;17473;52.286;20.930;2023-02-22T10:38:52;6.17;;;3.57;;
30723;SDS011;17473;52.286;20.930;2023-02-22T10:41:44;6.70;;;3.57;;
30723;SDS011;17473;52.286;20.930;2023-02-22T10:44:20;5.43;;;3.57;;
30723;SDS011;17473;52.286;20.930;2023-02-22T10:46:47;5.13;;;3.60;;
30723;SDS011;17473;52.286;20.930;2023-02-22T10:49:17;6.30;;;3.77;;
30723;SDS011;17473;52.286;20.930;2023-02-22T10:51:56;6.77;;;3.20;;
30723;SDS011;17473;52.286;20.930;2023-02-22T10:54:30;5.67;;;4.20;;
30723;SDS011;17473;52.286;20.930;2023-02-22T10:57:01;7.83;;;4.23;;
30723;SDS011;17473;52.286;20.930;2023-02-22T10:59:30;6.73;;;4.10;;
30723;SDS011;17473;52.286;20.930;2023-02-22T11:02:20;6.10;;;3.43;;
30723;SDS011;17473;52.286;20.930;2023-02-22T11:04:56;6.57;;;4.27;;
30723;SDS011;17473;52.286;20.930;2023-02-22T11:09:57;12.80;;;4.27;;
30723;SDS011;17473;52.286;20.930;2023-02-22T11:12:37;5.17;;;3.57;;
30723;SDS011;17473;52.286;20.930;2023-02-22T11:17:44;7.33;;;3.20;;
30723;SDS011;17473;52.286;20.930;2023-02-22T11:20:17;6.73;;;3.40;;
30723;SDS011;17473;52.286;20.930;2023-02-22T11:22:51;4.80;;;3.00;;
30723;SDS011;17473;52.286;20.930;2023-02-22T11:25:31;5.53;;;3.37;;
30723;SDS011;17473;52.286;20.930;2023-02-22T11:28:06;8.13;;;4.10;;
30723;SDS011;17473;52.286;20.930;2023-02-22T11:30:36;10.27;;;4.20;;
30723;SDS011;17473;52.286;20.930;2023-02-22T11:35:50;5.60;;;3.40;;
30723;SDS011;17473;52.286;20.930;2023-02-22T11:38:26;5.30;;;3.10;;
30723;SDS011;17473;52.286;20.930;2023-02-22T11:43:47;5.13;;;3.37;;
30723;SDS011;17473;52.286;20.930;2023-02-22T11:46:18;7.53;;;3.47;;
30723;SDS011;17473;52.286;20.930;2023-02-22T11:48:59;7.33;;;3.17;;
30723;SDS011;17473;52.286;20.930;2023-02-22T11:51:52;4.17;;;2.63;;
30723;SDS011;17473;52.286;20.930;2023-02-22T11:57:49;4.83;;;2.80;;
30723;SDS011;17473;52.286;20.930;2023-02-22T12:00:44;6.13;;;3.27;;
30723;SDS011;17473;52.286;20.930;2023-02-22T12:03:53;8.57;;;3.00;;
30723;SDS011;17473;52.286;20.930;2023-02-22T12:09:43;5.53;;;3.33;;
30723;SDS011;17473;52.286;20.930;2023-02-22T12:20:54;6.40;;;3.23;;
30723;SDS011;17473;52.286;20.930;2023-02-22T12:26:33;6.33;;;3.23;;
30723;SDS011;17473;52.286;20.930;2023-02-22T12:32:02;3.67;;;2.63;;
30723;SDS011;17473;52.286;20.930;2023-02-22T12:34:54;6.23;;;3.10;;
30723;SDS011;17473;52.286;20.930;2023-02-22T12:50:54;5.13;;;3.13;;
30723;SDS011;17473;52.286;20.930;2023-02-22T12:53:48;4.50;;;2.90;;
30723;SDS011;17473;52.286;20.930;2023-02-22T12:56:52;4.60;;;3.07;;
30723;SDS011;17473;52.286;20.930;2023-02-22T13:05:14;7.13;;;3.50;;
30723;SDS011;17473;52.286;20.930;2023-02-22T13:07:56;6.00;;;3.50;;
30723;SDS011;17473;52.286;20.930;2023-02-22T13:10:52;8.83;;;3.20;;
30723;SDS011;17473;52.286;20.930;2023-02-22T13:14:11;5.13;;;3.17;;
30723;SDS011;17473;52.286;20.930;2023-02-22T13:19:58;4.47;;;3.27;;
30723;SDS011;17473;52.286;20.930;2023-02-22T13:22:55;6.07;;;3.07;;
30723;SDS011;17473;52.286;20.930;2023-02-22T13:25:27;4.43;;;2.80;;
30723;SDS011;17473;52.286;20.930;2023-02-22T13:28:27;5.37;;;3.07;;
30723;SDS011;17473;52.286;20.930;2023-02-22T13:41:07;4.67;;;2.90;;
30723;SDS011;17473;52.286;20.930;2023-02-22T13:50:08;6.53;;;3.13;;
30723;SDS011;17473;52.286;20.930;2023-02-22T13:52:44;7.87;;;3.50;;
30723;SDS011;17473;52.286;20.930;2023-02-22T13:55:15;5.17;;;3.17;;
30723;SDS011;17473;52.286;20.930;2023-02-22T13:58:06;8.80;;;3.30;;
30723;SDS011;17473;52.286;20.930;2023-02-22T14:13:28;4.30;;;2.77;;
30723;SDS011;17473;52.286;20.930;2023-02-22T14:21:05;4.57;;;2.27;;
30723;SDS011;17473;52.286;20.930;2023-02-22T14:23:39;4.53;;;2.30;;
30723;SDS011;17473;52.286;20.930;2023-02-22T14:26:19;5.63;;;2.77;;
30723;SDS011;17473;52.286;20.930;2023-02-22T14:34:16;3.83;;;2.70;;
30723;SDS011;17473;52.286;20.930;2023-02-22T14:37:15;3.40;;;2.60;;
30723;SDS011;17473;52.286;20.930;2023-02-22T14:45:10;4.43;;;2.37;;
30723;SDS011;17473;52.286;20.930;2023-02-22T14:48:04;3.70;;;2.43;;
30723;SDS011;17473;52.286;20.930;2023-02-22T14:50:47;4.43;;;2.60;;
30723;SDS011;17473;52.286;20.930;2023-02-22T14:53:47;5.70;;;3.23;;
30723;SDS011;17473;52.286;20.930;2023-02-22T14:56:43;6.93;;;3.13;;
30723;SDS011;17473;52.286;20.930;2023-02-22T14:59:50;5.60;;;3.60;;
30723;SDS011;17473;52.286;20.930;2023-02-22T15:02:37;5.00;;;3.20;;
30723;SDS011;17473;52.286;20.930;2023-02-22T15:05:06;5.23;;;3.17;;
30723;SDS011;17473;52.286;20.930;2023-02-22T15:07:54;5.40;;;3.47;;
30723;SDS011;17473;52.286;20.930;2023-02-22T15:10:29;5.47;;;3.63;;
30723;SDS011;17473;52.286;20.930;2023-02-22T15:13:18;6.27;;;3.63;;
30723;SDS011;17473;52.286;20.930;2023-02-22T15:15:56;5.67;;;3.20;;
30723;SDS011;17473;52.286;20.930;2023-02-22T15:18:33;4.57;;;3.07;;
30723;SDS011;17473;52.286;20.930;2023-02-22T15:21:09;3.60;;;2.60;;
30723;SDS011;17473;52.286;20.930;2023-02-22T15:23:44;6.47;;;2.97;;
30723;SDS011;17473;52.286;20.930;2023-02-22T15:26:32;6.27;;;2.50;;
30723;SDS011;17473;52.286;20.930;2023-02-22T15:31:57;4.47;;;2.80;;
30723;SDS011;17473;52.286;20.930;2023-02-22T15:34:30;5.67;;;3.10;;
30723;SDS011;17473;52.286;20.930;2023-02-22T15:37:13;5.57;;;3.30;;
30723;SDS011;17473;52.286;20.930;2023-02-22T15:40:07;5.47;;;3.10;;
30723;SDS011;17473;52.286;20.930;2023-02-22T15:42:42;7.43;;;3.67;;
30723;SDS011;17473;52.286;20.930;2023-02-22T15:45:16;3.90;;;2.80;;
30723;SDS011;17473;52.286;20.930;2023-02-22T15:47:51;6.23;;;3.63;;
30723;SDS011;17473;52.286;20.930;2023-02-22T15:50:24;6.83;;;3.60;;
30723;SDS011;17473;52.286;20.930;2023-02-22T15:55:24;11.83;;;4.00;;
30723;SDS011;17473;52.286;20.930;2023-02-22T15:57:55;5.70;;;3.70;;
30723;SDS011;17473;52.286;20.930;2023-02-22T16:00:34;8.37;;;3.80;;
30723;SDS011;17473;52.286;20.930;2023-02-22T16:03:07;7.70;;;3.93;;
30723;SDS011;17473;52.286;20.930;2023-02-22T16:08:23;7.10;;;4.00;;
30723;SDS011;17473;52.286;20.930;2023-02-22T16:11:20;5.63;;;3.57;;
30723;SDS011;17473;52.286;20.930;2023-02-22T16:14:03;7.70;;;4.13;;
30723;SDS011;17473;52.286;20.930;2023-02-22T16:16:33;6.27;;;3.90;;
30723;SDS011;17473;52.286;20.930;2023-02-22T16:19:26;9.83;;;4.17;;
30723;SDS011;17473;52.286;20.930;2023-02-22T16:21:59;7.63;;;4.10;;
30723;SDS011;17473;52.286;20.930;2023-02-22T16:24:38;7.90;;;4.20;;
30723;SDS011;17473;52.286;20.930;2023-02-22T16:32:50;9.87;;;4.27;;
30723;SDS011;17473;52.286;20.930;2023-02-22T16:35:18;5.77;;;3.93;;
30723;SDS011;17473;52.286;20.930;2023-02-22T16:37:50;6.90;;;4.27;;
30723;SDS011;17473;52.286;20.930;2023-02-22T16:40:39;11.20;;;4.63;;
30723;SDS011;17473;52.286;20.930;2023-02-22T16:43:16;6.23;;;3.77;;
30723;SDS011;17473;52.286;20.930;2023-02-22T16:45:48;8.63;;;4.93;;
30723;SDS011;17473;52.286;20.930;2023-02-22T16:48:20;7.60;;;4.00;;
30723;SDS011;17473;52.286;20.930;2023-02-22T16:50:53;7.63;;;4.60;;
30723;SDS011;17473;52.286;20.930;2023-02-22T16:53:25;7.50;;;4.53;;
30723;SDS011;17473;52.286;20.930;2023-02-22T16:55:56;8.40;;;5.37;;
30723;SDS011;17473;52.286;20.930;2023-02-22T16:58:33;8.33;;;5.07;;
30723;SDS011;17473;52.286;20.930;2023-02-22T17:01:04;6.53;;;4.60;;
30723;SDS011;17473;52.286;20.930;2023-02-22T17:03:32;8.67;;;5.20;;
30723;SDS011;17473;52.286;20.930;2023-02-22T17:05:59;9.80;;;4.83;;
30723;SDS011;17473;52.286;20.930;2023-02-22T17:08:26;8.87;;;4.47;;
30723;SDS011;17473;52.286;20.930;2023-02-22T17:10:53;9.40;;;4.60;;
30723;SDS011;17473;52.286;20.930;2023-02-22T17:13:23;8.13;;;4.60;;
30723;SDS011;17473;52.286;20.930;2023-02-22T17:15:52;9.93;;;5.57;;
30723;SDS011;17473;52.286;20.930;2023-02-22T17:18:20;7.67;;;4.83;;
30723;SDS011;17473;52.286;20.930;2023-02-22T17:20:50;8.77;;;4.47;;
30723;SDS011;17473;52.286;20.930;2023-02-22T17:23:18;8.83;;;6.00;;
30723;SDS011;17473;52.286;20.930;2023-02-22T17:28:19;8.93;;;5.47;;
30723;SDS011;17473;52.286;20.930;2023-02-22T17:30:49;9.97;;;5.27;;
30723;SDS011;17473;52.286;20.930;2023-02-22T17:33:18;9.63;;;5.47;;
30723;SDS011;17473;52.286;20.930;2023-02-22T17:35:52;9.77;;;5.63;;
30723;SDS011;17473;52.286;20.930;2023-02-22T17:38:21;10.33;;;5.30;;
30723;SDS011;17473;52.286;20.930;2023-02-22T17:40:49;10.23;;;5.80;;
30723;SDS011;17473;52.286;20.930;2023-02-22T17:43:20;11.37;;;6.10;;
30723;SDS011;17473;52.286;20.930;2023-02-22T17:45:47;9.87;;;5.30;;
30723;SDS011;17473;52.286;20.930;2023-02-22T17:48:16;10.80;;;6.57;;
30723;SDS011;17473;52.286;20.930;2023-02-22T17:50:44;10.43;;;5.70;;
30723;SDS011;17473;52.286;20.930;2023-02-22T17:53:13;9.33;;;5.70;;
30723;SDS011;17473;52.286;20.930;2023-02-22T17:55:41;9.93;;;5.63;;
30723;SDS011;17473;52.286;20.930;2023-02-22T17:58:09;10.60;;;6.33;;
30723;SDS011;17473;52.286;20.930;2023-02-22T18:00:44;10.90;;;6.20;;
30723;SDS011;17473;52.286;20.930;2023-02-22T18:03:15;14.87;;;7.07;;